createdAt,value
2017-08-13T00:00:53.282Z,3.99
2017-08-13T00:01:53.279Z,3.99
2017-08-13T00:02:53.242Z,3.98
2017-08-13T00:03:53.237Z,3.98
2017-08-13T00:04:53.396Z,3.99
2017-08-13T00:05:53.272Z,3.98
2017-08-13T00:06:54.848Z,3.98
2017-08-13T00:07:53.224Z,3.99
2017-08-13T00:08:53.194Z,3.99
2017-08-13T00:09:53.290Z,3.98
2017-08-13T00:10:53.242Z,3.99
2017-08-13T00:11:53.246Z,3.99
2017-08-13T00:12:53.217Z,3.99
2017-08-13T00:13:53.181Z,3.98
2017-08-13T00:14:53.241Z,3.98
2017-08-13T00:15:53.239Z,3.98
2017-08-13T00:16:53.250Z,3.98
2017-08-13T00:17:53.310Z,3.98
2017-08-13T00:18:53.248Z,3.98
2017-08-13T00:19:53.741Z,3.98
2017-08-13T00:20:53.233Z,3.98
2017-08-13T00:21:53.235Z,3.99
2017-08-13T00:22:53.243Z,3.98
2017-08-13T00:23:53.223Z,3.98
2017-08-13T00:24:53.228Z,3.98
2017-08-13T00:25:53.246Z,3.99
2017-08-13T00:26:53.261Z,3.98
2017-08-13T00:27:53.182Z,3.98
2017-08-13T00:28:53.901Z,3.98
2017-08-13T00:29:53.244Z,3.98
2017-08-13T00:30:53.219Z,3.98
2017-08-13T00:31:53.276Z,3.98
2017-08-13T00:32:53.766Z,3.98
2017-08-13T00:33:53.255Z,3.98
2017-08-13T00:34:53.259Z,3.98
2017-08-13T00:35:53.254Z,3.98
2017-08-13T00:36:53.756Z,3.98
2017-08-13T00:37:53.273Z,3.98
2017-08-13T00:38:53.196Z,3.98
2017-08-13T00:39:53.270Z,3.98
2017-08-13T00:40:53.760Z,3.98
2017-08-13T00:41:53.243Z,3.98
2017-08-13T00:42:53.301Z,3.98
2017-08-13T00:43:53.176Z,3.98
2017-08-13T00:44:53.254Z,3.98
2017-08-13T00:45:53.249Z,3.98
2017-08-13T00:46:53.180Z,3.98
2017-08-13T00:47:53.222Z,3.98
2017-08-13T00:48:53.339Z,3.98
2017-08-13T00:49:53.202Z,3.98
2017-08-13T00:50:53.278Z,3.98
2017-08-13T00:51:53.271Z,3.98
2017-08-13T00:52:53.784Z,3.98
2017-08-13T00:53:53.217Z,3.98
2017-08-13T00:54:53.786Z,3.98
2017-08-13T00:55:53.273Z,3.98
2017-08-13T00:56:53.221Z,3.98
2017-08-13T00:57:53.308Z,3.98
2017-08-13T00:58:53.790Z,3.98
2017-08-13T00:59:53.280Z,3.98
2017-08-13T01:00:53.227Z,3.98
2017-08-13T01:01:53.249Z,3.98
2017-08-13T01:02:53.268Z,3.98
2017-08-13T01:03:53.253Z,3.98
2017-08-13T01:04:53.204Z,3.98
2017-08-13T01:05:53.213Z,3.98
2017-08-13T01:06:53.250Z,3.98
2017-08-13T01:07:53.215Z,3.98
2017-08-13T01:08:53.278Z,3.98
2017-08-13T01:09:53.184Z,3.98
2017-08-13T01:10:53.249Z,3.98
2017-08-13T01:11:53.812Z,3.98
2017-08-13T01:12:53.210Z,3.98
2017-08-13T01:13:54.309Z,3.98
2017-08-13T01:14:53.227Z,3.98
2017-08-13T01:15:53.240Z,3.98
2017-08-13T01:16:53.813Z,3.98
2017-08-13T01:17:53.816Z,3.98
2017-08-13T01:18:54.324Z,3.98
2017-08-13T01:19:53.195Z,3.98
2017-08-13T01:20:53.208Z,3.98
2017-08-13T01:21:53.185Z,3.98
2017-08-13T01:22:53.203Z,3.98
2017-08-13T01:23:54.824Z,3.97
2017-08-13T01:24:54.848Z,3.98
2017-08-13T01:25:53.223Z,3.98
2017-08-13T01:26:53.262Z,3.98
2017-08-13T01:27:53.233Z,3.98
2017-08-13T01:28:53.299Z,3.98
2017-08-13T01:29:53.181Z,3.98
2017-08-13T01:30:53.226Z,3.98
2017-08-13T01:31:53.226Z,3.98
2017-08-13T01:32:53.239Z,3.98
2017-08-13T01:33:53.256Z,3.98
2017-08-13T01:34:53.840Z,3.98
2017-08-13T01:35:53.196Z,3.98
2017-08-13T01:36:53.259Z,3.98
2017-08-13T01:37:53.220Z,3.98
2017-08-13T01:38:53.918Z,3.98
2017-08-13T01:39:53.272Z,3.98
2017-08-13T01:40:53.900Z,3.98
2017-08-13T01:41:53.852Z,3.98
2017-08-13T01:42:53.854Z,3.98
2017-08-13T01:43:53.257Z,3.98
2017-08-13T01:44:53.854Z,3.98
2017-08-13T01:45:53.179Z,3.97
2017-08-13T01:46:53.206Z,3.98
2017-08-13T01:47:53.278Z,3.97
2017-08-13T01:48:53.311Z,3.98
2017-08-13T01:49:53.887Z,3.98
2017-08-13T01:50:54.869Z,3.97
2017-08-13T01:51:53.261Z,3.97
2017-08-13T01:52:53.221Z,3.97
2017-08-13T01:53:53.202Z,3.98
2017-08-13T01:54:53.233Z,3.98
2017-08-13T01:55:53.211Z,3.98
2017-08-13T01:56:53.236Z,3.98
2017-08-13T01:57:54.875Z,3.97
2017-08-13T01:58:53.237Z,3.97
2017-08-13T01:59:53.226Z,3.98
2017-08-13T02:00:53.281Z,3.98
2017-08-13T02:01:53.264Z,3.97
2017-08-13T02:02:53.248Z,3.97
2017-08-13T02:03:53.888Z,3.97
2017-08-13T02:04:53.278Z,3.97
2017-08-13T02:05:53.304Z,3.97
2017-08-13T02:06:53.205Z,3.97
2017-08-13T02:07:53.234Z,3.97
2017-08-13T02:08:53.201Z,3.98
2017-08-13T02:09:53.897Z,3.98
2017-08-13T02:10:53.187Z,3.97
2017-08-13T02:11:53.203Z,3.97
2017-08-13T02:12:53.200Z,3.97
2017-08-13T02:13:53.206Z,3.97
2017-08-13T02:14:53.228Z,3.97
2017-08-13T02:15:53.901Z,3.97
2017-08-13T02:16:53.940Z,3.97
2017-08-13T02:17:53.193Z,3.97
2017-08-13T02:18:53.286Z,3.97
2017-08-13T02:19:53.214Z,3.97
2017-08-13T02:20:54.914Z,3.97
2017-08-13T02:21:53.273Z,3.97
2017-08-13T02:22:53.237Z,3.97
2017-08-13T02:23:53.209Z,3.97
2017-08-13T02:24:53.918Z,3.97
2017-08-13T02:25:53.192Z,3.97
2017-08-13T02:26:53.257Z,3.97
2017-08-13T02:27:53.163Z,3.97
2017-08-13T02:28:53.176Z,3.97
2017-08-13T02:29:53.924Z,3.96
2017-08-13T02:30:53.149Z,3.97
2017-08-13T02:31:53.238Z,3.97
2017-08-13T02:32:53.246Z,3.96
2017-08-13T02:33:53.946Z,3.97
2017-08-13T02:34:53.330Z,3.96
2017-08-13T02:35:53.225Z,3.96
2017-08-13T02:36:53.211Z,3.97
2017-08-13T02:37:53.205Z,3.97
2017-08-13T02:38:53.211Z,3.97
2017-08-13T02:39:53.219Z,3.96
2017-08-13T02:40:53.220Z,3.97
2017-08-13T02:41:53.225Z,3.97
2017-08-13T02:42:53.182Z,3.97
2017-08-13T02:43:53.203Z,3.96
2017-08-13T02:44:53.227Z,3.97
2017-08-13T02:45:53.222Z,3.96
2017-08-13T02:46:53.148Z,3.96
2017-08-13T02:47:54.950Z,3.96
2017-08-13T02:48:53.192Z,3.97
2017-08-13T02:49:53.218Z,3.96
2017-08-13T02:50:53.251Z,3.96
2017-08-13T02:51:54.195Z,3.97
2017-08-13T02:52:53.229Z,3.96
2017-08-13T02:53:53.202Z,3.97
2017-08-13T02:54:53.202Z,3.96
2017-08-13T02:55:53.262Z,3.97
2017-08-13T02:56:53.155Z,3.97
2017-08-13T02:57:53.188Z,3.96
2017-08-13T02:58:53.179Z,3.97
2017-08-13T02:59:53.205Z,3.97
2017-08-13T03:00:53.195Z,3.96
2017-08-13T03:01:54.973Z,3.96
2017-08-13T03:02:53.203Z,3.96
2017-08-13T03:03:53.156Z,3.97
2017-08-13T03:04:53.984Z,3.96
2017-08-13T03:05:53.279Z,3.97
2017-08-13T03:06:53.250Z,3.96
2017-08-13T03:07:53.191Z,3.96
2017-08-13T03:08:53.165Z,3.96
2017-08-13T03:09:53.177Z,3.96
2017-08-13T03:10:53.226Z,3.96
2017-08-13T03:11:53.147Z,3.96
2017-08-13T03:12:53.187Z,3.96
2017-08-13T03:13:53.172Z,3.97
2017-08-13T03:14:53.215Z,3.96
2017-08-13T03:15:53.175Z,3.96
2017-08-13T03:16:54.991Z,3.96
2017-08-13T03:17:53.184Z,3.96
2017-08-13T03:18:54.017Z,3.96
2017-08-13T03:19:53.337Z,3.96
2017-08-13T03:20:53.185Z,3.96
2017-08-13T03:21:53.647Z,3.96
2017-08-13T03:22:54.000Z,3.96
2017-08-13T03:23:53.203Z,3.96
2017-08-13T03:24:53.171Z,3.96
2017-08-13T03:25:53.129Z,3.96
2017-08-13T03:26:53.186Z,3.96
2017-08-13T03:27:54.009Z,3.96
2017-08-13T03:28:54.210Z,3.96
2017-08-13T03:29:53.161Z,3.96
2017-08-13T03:30:53.238Z,3.96
2017-08-13T03:31:53.207Z,3.96
2017-08-13T03:32:54.023Z,3.96
2017-08-13T03:33:53.226Z,3.96
2017-08-13T03:34:53.163Z,3.96
2017-08-13T03:35:53.209Z,3.96
2017-08-13T03:36:53.278Z,3.96
2017-08-13T03:37:53.169Z,3.96
2017-08-13T03:38:53.168Z,3.96
2017-08-13T03:39:54.025Z,3.96
2017-08-13T03:40:55.035Z,3.96
2017-08-13T03:41:53.197Z,3.96
2017-08-13T03:42:53.192Z,3.96
2017-08-13T03:43:53.196Z,3.96
2017-08-13T03:44:53.209Z,3.96
2017-08-13T03:45:53.212Z,3.96
2017-08-13T03:46:54.034Z,3.96
2017-08-13T03:47:53.211Z,3.96
2017-08-13T03:48:53.163Z,3.96
2017-08-13T03:49:53.210Z,3.96
2017-08-13T03:50:54.064Z,3.96
2017-08-13T03:51:54.044Z,3.96
2017-08-13T03:52:53.155Z,3.96
2017-08-13T03:53:53.234Z,3.96
2017-08-13T03:54:53.161Z,3.96
2017-08-13T03:55:53.161Z,3.96
2017-08-13T03:56:53.798Z,3.96
2017-08-13T03:57:53.186Z,3.96
2017-08-13T03:58:53.168Z,3.96
2017-08-13T03:59:53.193Z,3.96
2017-08-13T04:00:53.130Z,3.96
2017-08-13T04:01:53.157Z,3.96
2017-08-13T04:02:53.194Z,3.96
2017-08-13T04:03:53.245Z,3.96
2017-08-13T04:04:54.061Z,3.96
2017-08-13T04:05:53.177Z,3.96
2017-08-13T04:06:54.067Z,3.96
2017-08-13T04:07:53.205Z,3.96
2017-08-13T04:08:53.194Z,3.96
2017-08-13T04:09:53.136Z,3.96
2017-08-13T04:10:53.177Z,3.96
2017-08-13T04:11:53.104Z,3.96
2017-08-13T04:12:54.100Z,3.96
2017-08-13T04:13:53.124Z,3.96
2017-08-13T04:14:53.156Z,3.96
2017-08-13T04:15:53.195Z,3.96
2017-08-13T04:16:53.188Z,3.96
2017-08-13T04:17:53.222Z,3.96
2017-08-13T04:18:53.142Z,3.96
2017-08-13T04:19:53.197Z,3.96
2017-08-13T04:20:53.158Z,3.96
2017-08-13T04:21:53.178Z,3.96
2017-08-13T04:22:53.321Z,3.96
2017-08-13T04:23:53.189Z,3.96
2017-08-13T04:24:53.180Z,3.95
2017-08-13T04:25:53.594Z,3.96
2017-08-13T04:26:53.118Z,3.96
2017-08-13T04:27:53.213Z,3.96
2017-08-13T04:28:53.174Z,3.96
2017-08-13T04:29:54.098Z,3.96
2017-08-13T04:30:53.185Z,3.96
2017-08-13T04:31:53.099Z,3.96
2017-08-13T04:32:53.139Z,3.96
2017-08-13T04:33:53.182Z,3.96
2017-08-13T04:34:53.118Z,3.96
2017-08-13T04:35:53.141Z,3.96
2017-08-13T04:36:53.171Z,3.96
2017-08-13T04:37:54.116Z,3.96
2017-08-13T04:38:53.227Z,3.96
2017-08-13T04:39:53.615Z,3.96
2017-08-13T04:40:53.138Z,3.96
2017-08-13T04:41:53.107Z,3.96
2017-08-13T04:42:53.282Z,3.96
2017-08-13T04:43:53.223Z,3.96
2017-08-13T04:44:53.625Z,3.96
2017-08-13T04:45:53.137Z,3.96
2017-08-13T04:46:53.203Z,3.96
2017-08-13T04:47:53.178Z,3.95
2017-08-13T04:48:53.157Z,3.96
2017-08-13T04:49:53.165Z,3.95
2017-08-13T04:50:53.174Z,3.96
2017-08-13T04:51:53.642Z,3.96
2017-08-13T04:52:53.634Z,3.96
2017-08-13T04:53:53.209Z,3.96
2017-08-13T04:54:53.638Z,3.96
2017-08-13T04:55:53.147Z,3.96
2017-08-13T04:56:53.133Z,3.96
2017-08-13T04:57:53.648Z,3.96
2017-08-13T04:58:53.257Z,3.96
2017-08-13T04:59:53.187Z,3.95
2017-08-13T05:00:53.125Z,3.96
2017-08-13T05:01:53.145Z,3.95
2017-08-13T05:02:53.157Z,3.96
2017-08-13T05:03:53.182Z,3.95
2017-08-13T05:04:53.190Z,3.96
2017-08-13T05:05:53.153Z,3.96
2017-08-13T05:06:53.141Z,3.95
2017-08-13T05:07:53.210Z,3.96
2017-08-13T05:08:53.656Z,3.96
2017-08-13T05:09:53.172Z,3.96
2017-08-13T05:10:53.149Z,3.96
2017-08-13T05:11:53.159Z,3.96
2017-08-13T05:12:53.214Z,3.96
2017-08-13T05:13:53.225Z,3.95
2017-08-13T05:14:53.225Z,3.95
2017-08-13T05:15:53.155Z,3.96
2017-08-13T05:16:53.150Z,3.96
2017-08-13T05:17:53.679Z,3.96
2017-08-13T05:18:53.674Z,3.96
2017-08-13T05:19:53.199Z,3.96
2017-08-13T05:20:53.681Z,3.96
2017-08-13T05:21:53.676Z,3.96
2017-08-13T05:22:53.111Z,3.96
2017-08-13T05:23:53.184Z,3.96
2017-08-13T05:24:53.813Z,3.96
2017-08-13T05:25:53.131Z,3.96
2017-08-13T05:26:53.196Z,3.96
2017-08-13T05:27:53.131Z,3.96
2017-08-13T05:28:53.187Z,3.96
2017-08-13T05:29:53.691Z,3.96
2017-08-13T05:30:53.187Z,3.96
2017-08-13T05:31:53.126Z,3.96
2017-08-13T05:32:53.201Z,3.96
2017-08-13T05:33:53.145Z,3.95
2017-08-13T05:34:53.198Z,3.95
2017-08-13T05:35:53.135Z,3.96
2017-08-13T05:36:53.698Z,3.96
2017-08-13T05:37:53.208Z,3.96
2017-08-13T05:38:53.701Z,3.96
2017-08-13T05:39:53.227Z,3.96
2017-08-13T05:40:53.088Z,3.95
2017-08-13T05:41:53.144Z,3.96
2017-08-13T05:42:53.725Z,3.96
2017-08-13T05:43:53.173Z,3.95
2017-08-13T05:44:53.710Z,3.95
2017-08-13T05:45:53.132Z,3.96
2017-08-13T05:46:53.143Z,3.96
2017-08-13T05:47:53.211Z,3.95
2017-08-13T05:48:53.157Z,3.96
2017-08-13T05:49:53.720Z,3.95
2017-08-13T05:50:53.720Z,3.96
2017-08-13T05:51:53.079Z,3.95
2017-08-13T05:52:53.160Z,3.95
2017-08-13T05:53:53.724Z,3.96
2017-08-13T05:54:53.338Z,3.95
2017-08-13T05:55:53.136Z,3.96
2017-08-13T05:56:53.114Z,3.96
2017-08-13T05:57:53.122Z,3.96
2017-08-13T05:58:53.127Z,3.96
2017-08-13T05:59:53.170Z,3.96
2017-08-13T06:00:53.154Z,3.96
2017-08-13T06:01:53.872Z,3.96
2017-08-13T06:02:53.193Z,3.96
2017-08-13T06:03:53.128Z,3.96
2017-08-13T06:04:53.110Z,3.96
2017-08-13T06:05:53.744Z,3.96
2017-08-13T06:06:53.098Z,3.96
2017-08-13T06:07:53.139Z,3.96
2017-08-13T06:08:53.163Z,3.96
2017-08-13T06:09:53.141Z,3.96
2017-08-13T06:10:53.440Z,3.96
2017-08-13T06:11:53.159Z,3.96
2017-08-13T06:12:53.133Z,3.96
2017-08-13T06:13:53.129Z,3.96
2017-08-13T06:14:53.117Z,3.96
2017-08-13T06:15:53.866Z,3.96
2017-08-13T06:16:53.132Z,3.96
2017-08-13T06:17:53.192Z,3.96
2017-08-13T06:18:53.131Z,3.96
2017-08-13T06:19:53.098Z,3.96
2017-08-13T06:20:53.144Z,3.96
2017-08-13T06:21:53.095Z,3.96
2017-08-13T06:22:53.199Z,3.97
2017-08-13T06:23:53.768Z,3.96
2017-08-13T06:24:53.174Z,3.96
2017-08-13T06:25:53.772Z,3.96
2017-08-13T06:26:53.110Z,3.96
2017-08-13T06:27:54.814Z,3.97
2017-08-13T06:28:53.775Z,3.96
2017-08-13T06:29:53.092Z,3.96
2017-08-13T06:30:53.190Z,3.96
2017-08-13T06:31:53.804Z,3.96
2017-08-13T06:32:53.782Z,3.96
2017-08-13T06:33:53.099Z,3.96
2017-08-13T06:34:53.120Z,3.96
2017-08-13T06:35:53.141Z,3.96
2017-08-13T06:36:53.793Z,3.97
2017-08-13T06:37:53.111Z,3.97
2017-08-13T06:38:53.189Z,3.97
2017-08-13T06:39:53.907Z,3.97
2017-08-13T06:40:53.098Z,3.98
2017-08-13T06:41:53.806Z,3.98
2017-08-13T06:42:53.113Z,3.98
2017-08-13T06:43:53.118Z,3.98
2017-08-13T06:44:53.096Z,3.97
2017-08-13T06:45:53.965Z,3.98
2017-08-13T06:46:53.202Z,3.97
2017-08-13T06:47:53.099Z,3.98
2017-08-13T06:48:53.807Z,3.97
2017-08-13T06:49:53.188Z,3.98
2017-08-13T06:50:53.815Z,3.98
2017-08-13T06:51:53.147Z,3.98
2017-08-13T06:52:53.182Z,3.98
2017-08-13T06:53:53.122Z,3.98
2017-08-13T06:54:53.128Z,3.98
2017-08-13T06:55:53.108Z,3.99
2017-08-13T06:56:53.820Z,3.98
2017-08-13T06:57:53.098Z,3.99
2017-08-13T06:58:53.174Z,3.99
2017-08-13T06:59:53.095Z,3.99
2017-08-13T07:00:53.128Z,4.00
2017-08-13T07:01:53.175Z,3.99
2017-08-13T07:02:53.106Z,3.99
2017-08-13T07:03:53.107Z,3.98
2017-08-13T07:04:53.075Z,3.99
2017-08-13T07:05:53.076Z,3.99
2017-08-13T07:06:53.123Z,4.00
2017-08-13T07:07:53.151Z,4.00
2017-08-13T07:08:53.176Z,3.99
2017-08-13T07:09:53.119Z,4.00
2017-08-13T07:10:53.848Z,4.00
2017-08-13T07:11:53.129Z,4.01
2017-08-13T07:12:53.154Z,4.00
2017-08-13T07:13:53.846Z,4.01
2017-08-13T07:14:53.850Z,4.00
2017-08-13T07:15:53.157Z,3.99
2017-08-13T07:16:53.852Z,3.99
2017-08-13T07:17:53.045Z,3.99
2017-08-13T07:18:53.205Z,3.99
2017-08-13T07:19:53.061Z,4.00
2017-08-13T07:20:53.857Z,4.00
2017-08-13T07:21:53.155Z,4.00
2017-08-13T07:22:53.104Z,3.99
2017-08-13T07:23:53.179Z,4.00
2017-08-13T07:24:53.083Z,4.02
2017-08-13T07:25:53.119Z,4.00
2017-08-13T07:26:53.059Z,4.00
2017-08-13T07:27:53.154Z,4.00
2017-08-13T07:28:53.109Z,4.00
2017-08-13T07:29:53.890Z,3.99
2017-08-13T07:30:53.107Z,3.99
2017-08-13T07:31:53.111Z,4.00
2017-08-13T07:32:53.136Z,4.00
2017-08-13T07:33:53.105Z,3.99
2017-08-13T07:34:53.116Z,4.02
2017-08-13T07:35:53.144Z,4.00
2017-08-13T07:36:53.130Z,4.00
2017-08-13T07:37:53.116Z,4.00
2017-08-13T07:38:53.067Z,4.02
2017-08-13T07:39:53.136Z,4.02
2017-08-13T07:40:53.084Z,4.00
2017-08-13T07:41:53.093Z,4.02
2017-08-13T07:42:53.556Z,4.00
2017-08-13T07:43:53.115Z,4.00
2017-08-13T07:44:53.148Z,4.00
2017-08-13T07:45:53.200Z,4.02
2017-08-13T07:46:53.066Z,4.00
2017-08-13T07:47:53.140Z,3.99
2017-08-13T07:48:53.100Z,4.00
2017-08-13T07:49:54.022Z,3.99
2017-08-13T07:50:53.164Z,4.00
2017-08-13T07:51:53.102Z,3.99
2017-08-13T07:52:53.114Z,4.00
2017-08-13T07:53:53.139Z,4.02
2017-08-13T07:54:53.082Z,4.03
2017-08-13T07:55:53.072Z,4.03
2017-08-13T07:56:53.103Z,4.01
2017-08-13T07:57:53.117Z,4.02
2017-08-13T07:58:53.920Z,4.01
2017-08-13T07:59:53.938Z,4.02
2017-08-13T08:00:53.115Z,4.01
2017-08-13T08:01:53.139Z,4.02
2017-08-13T08:02:53.154Z,4.01
2017-08-13T08:03:53.173Z,4.01
2017-08-13T08:04:53.933Z,4.01
2017-08-13T08:05:53.928Z,4.01
2017-08-13T08:06:53.059Z,4.01
2017-08-13T08:07:53.095Z,4.02
2017-08-13T08:08:53.190Z,4.01
2017-08-13T08:09:53.166Z,4.02
2017-08-13T08:10:53.079Z,4.01
2017-08-13T08:11:53.949Z,4.01
2017-08-13T08:12:59.021Z,4.00
2017-08-13T08:13:53.130Z,4.01
2017-08-13T08:14:53.087Z,4.00
2017-08-13T08:15:53.079Z,4.00
2017-08-13T08:16:53.954Z,4.00
2017-08-13T08:17:53.138Z,4.00
2017-08-13T08:18:53.097Z,4.00
2017-08-13T08:19:53.974Z,4.00
2017-08-13T08:20:53.121Z,4.00
2017-08-13T08:21:53.096Z,4.00
2017-08-13T08:22:54.109Z,4.00
2017-08-13T08:23:53.115Z,4.00
2017-08-13T08:24:53.175Z,4.02
2017-08-13T08:25:53.097Z,4.02
2017-08-13T08:26:53.967Z,4.01
2017-08-13T08:27:53.973Z,4.02
2017-08-13T08:28:53.125Z,4.01
2017-08-13T08:29:53.176Z,4.01
2017-08-13T08:30:53.077Z,4.01
2017-08-13T08:31:53.149Z,4.02
2017-08-13T08:32:53.054Z,4.01
2017-08-13T08:33:53.131Z,4.02
2017-08-13T08:34:53.050Z,4.02
2017-08-13T08:35:53.106Z,4.03
2017-08-13T08:36:53.065Z,4.02
2017-08-13T08:37:53.075Z,4.02
2017-08-13T08:38:53.151Z,4.03
2017-08-13T08:39:53.121Z,4.02
2017-08-13T08:40:53.098Z,4.03
2017-08-13T08:41:53.123Z,4.02
2017-08-13T08:42:53.988Z,4.02
2017-08-13T08:43:54.495Z,4.03
2017-08-13T08:44:54.006Z,4.02
2017-08-13T08:45:53.108Z,4.02
2017-08-13T08:46:53.118Z,4.02
2017-08-13T08:47:53.135Z,4.02
2017-08-13T08:48:53.091Z,4.02
2017-08-13T08:49:54.005Z,4.02
2017-08-13T08:50:53.234Z,4.02
2017-08-13T08:51:53.230Z,4.02
2017-08-13T08:52:53.157Z,4.02
2017-08-13T08:53:53.068Z,4.02
2017-08-13T08:54:53.104Z,4.02
2017-08-13T08:55:53.065Z,4.02
2017-08-13T08:56:53.091Z,4.02
2017-08-13T08:57:53.514Z,4.02
2017-08-13T08:58:53.515Z,4.03
2017-08-13T08:59:53.093Z,4.03
2017-08-13T09:00:53.058Z,4.03
2017-08-13T09:01:53.079Z,4.03
2017-08-13T09:02:53.074Z,4.03
2017-08-13T09:03:53.180Z,4.03
2017-08-13T09:04:53.141Z,4.03
2017-08-13T09:05:53.080Z,4.03
2017-08-13T09:06:53.623Z,4.03
2017-08-13T09:07:53.067Z,4.02
2017-08-13T09:08:53.539Z,4.02
2017-08-13T09:09:53.084Z,4.03
2017-08-13T09:10:53.076Z,4.03
2017-08-13T09:11:53.077Z,4.03
2017-08-13T09:12:53.131Z,4.04
2017-08-13T09:13:53.089Z,4.04
2017-08-13T09:14:53.053Z,4.03
2017-08-13T09:15:53.082Z,4.03
2017-08-13T09:16:53.548Z,4.03
2017-08-13T09:17:53.049Z,4.03
2017-08-13T09:18:53.099Z,4.03
2017-08-13T09:19:53.105Z,4.03
2017-08-13T09:20:53.556Z,4.02
2017-08-13T09:21:53.061Z,4.02
2017-08-13T09:22:53.070Z,4.03
2017-08-13T09:23:53.173Z,4.03
2017-08-13T09:24:53.178Z,4.03
2017-08-13T09:25:55.559Z,4.03
2017-08-13T09:26:53.081Z,4.03
2017-08-13T09:27:53.141Z,4.03
2017-08-13T09:28:53.058Z,4.03
2017-08-13T09:29:53.570Z,4.03
2017-08-13T09:30:53.567Z,4.03
2017-08-13T09:31:53.149Z,4.03
2017-08-13T09:32:53.047Z,4.03
2017-08-13T09:33:53.116Z,4.03
2017-08-13T09:34:53.127Z,4.03
2017-08-13T09:35:53.083Z,4.03
2017-08-13T09:36:53.046Z,4.03
2017-08-13T09:37:53.092Z,4.03
2017-08-13T09:38:53.084Z,4.03
2017-08-13T09:39:53.062Z,4.03
2017-08-13T09:40:53.082Z,4.03
2017-08-13T09:41:53.051Z,4.03
2017-08-13T09:42:53.099Z,4.03
2017-08-13T09:43:53.096Z,4.03
2017-08-13T09:44:53.620Z,4.03
2017-08-13T09:45:53.068Z,4.03
2017-08-13T09:46:53.147Z,4.03
2017-08-13T09:47:53.599Z,4.03
2017-08-13T09:48:53.718Z,4.03
2017-08-13T09:49:53.075Z,4.03
2017-08-13T09:50:53.285Z,4.03
2017-08-13T09:51:53.199Z,4.04
2017-08-13T09:52:53.603Z,4.03
2017-08-13T09:53:54.613Z,4.03
2017-08-13T09:54:53.030Z,4.04
2017-08-13T09:55:53.090Z,4.04
2017-08-13T09:56:53.164Z,4.04
2017-08-13T09:57:53.172Z,4.03
2017-08-13T09:58:53.614Z,4.04
2017-08-13T09:59:53.035Z,4.04
2017-08-13T10:00:53.069Z,4.04
2017-08-13T10:01:53.062Z,4.04
2017-08-13T10:02:53.624Z,4.04
2017-08-13T10:03:53.059Z,4.04
2017-08-13T10:04:53.103Z,4.04
2017-08-13T10:05:53.075Z,4.04
2017-08-13T10:06:53.317Z,4.04
2017-08-13T10:07:53.098Z,4.04
2017-08-13T10:08:53.071Z,4.04
2017-08-13T10:09:53.040Z,4.04
2017-08-13T10:10:53.109Z,4.04
2017-08-13T10:11:53.094Z,4.04
2017-08-13T10:12:53.082Z,4.04
2017-08-13T10:13:53.003Z,4.04
2017-08-13T10:14:53.061Z,4.04
2017-08-13T10:15:53.664Z,4.04
2017-08-13T10:16:53.714Z,4.04
2017-08-13T10:17:53.648Z,4.04
2017-08-13T10:18:53.052Z,4.04
2017-08-13T10:19:53.076Z,4.04
2017-08-13T10:20:53.044Z,4.04
2017-08-13T10:21:53.105Z,4.04
2017-08-13T10:22:53.102Z,4.04
2017-08-13T10:23:53.048Z,4.04
2017-08-13T10:24:53.675Z,4.04
2017-08-13T10:25:53.027Z,4.04
2017-08-13T10:26:53.194Z,4.04
2017-08-13T10:27:53.083Z,4.04
2017-08-13T10:28:53.037Z,4.04
2017-08-13T10:29:53.010Z,4.04
2017-08-13T10:30:53.696Z,4.04
2017-08-13T10:31:53.671Z,4.04
2017-08-13T10:32:53.035Z,4.04
2017-08-13T10:33:53.073Z,4.05
2017-08-13T10:34:53.066Z,4.05
2017-08-13T10:35:54.732Z,4.05
2017-08-13T10:36:53.093Z,4.05
2017-08-13T10:37:53.396Z,4.05
2017-08-13T10:38:53.079Z,4.05
2017-08-13T10:39:53.046Z,4.05
2017-08-13T10:40:53.686Z,4.05
2017-08-13T10:41:53.135Z,4.05
2017-08-13T10:42:53.072Z,4.05
2017-08-13T10:43:53.093Z,4.04
2017-08-13T10:44:53.035Z,4.05
2017-08-13T10:45:53.079Z,4.04
2017-08-13T10:46:53.005Z,4.04
2017-08-13T10:47:53.392Z,4.04
2017-08-13T10:48:53.732Z,4.04
2017-08-13T10:49:53.701Z,4.05
2017-08-13T10:50:53.036Z,4.04
2017-08-13T10:51:53.703Z,4.04
2017-08-13T10:52:53.064Z,4.04
2017-08-13T10:53:53.046Z,4.04
2017-08-13T10:54:53.058Z,4.05
2017-08-13T10:55:53.055Z,4.05
2017-08-13T10:56:53.711Z,4.05
2017-08-13T10:57:53.082Z,4.05
2017-08-13T10:58:53.073Z,4.05
2017-08-13T10:59:52.998Z,4.05
2017-08-13T11:00:53.109Z,4.05
2017-08-13T11:01:53.061Z,4.05
2017-08-13T11:02:53.158Z,4.05
2017-08-13T11:03:53.107Z,4.05
2017-08-13T11:04:53.076Z,4.05
2017-08-13T11:05:53.062Z,4.05
2017-08-13T11:06:53.004Z,4.05
2017-08-13T11:07:53.442Z,4.05
2017-08-13T11:08:53.733Z,4.05
2017-08-13T11:09:53.056Z,4.05
2017-08-13T11:10:53.066Z,4.05
2017-08-13T11:11:53.094Z,4.05
2017-08-13T11:12:54.237Z,4.05
2017-08-13T11:13:53.746Z,4.05
2017-08-13T11:14:53.760Z,4.05
2017-08-13T11:15:53.747Z,4.05
2017-08-13T11:16:53.851Z,4.04
2017-08-13T11:17:53.050Z,4.05
2017-08-13T11:18:53.089Z,4.05
2017-08-13T11:19:53.159Z,4.05
2017-08-13T11:20:53.101Z,4.05
2017-08-13T11:21:53.058Z,4.05
2017-08-13T11:22:53.754Z,4.05
2017-08-13T11:23:53.109Z,4.05
2017-08-13T11:24:53.119Z,4.05
2017-08-13T11:25:53.015Z,4.05
2017-08-13T11:26:53.044Z,4.04
2017-08-13T11:27:53.764Z,4.04
2017-08-13T11:28:53.111Z,4.05
2017-08-13T11:29:53.100Z,4.05
2017-08-13T11:30:53.099Z,4.05
2017-08-13T11:31:53.051Z,4.05
2017-08-13T11:32:53.058Z,4.05
2017-08-13T11:33:53.092Z,4.05
2017-08-13T11:34:53.120Z,4.05
2017-08-13T11:35:53.012Z,4.04
2017-08-13T11:36:52.987Z,4.05
2017-08-13T11:37:53.030Z,4.05
2017-08-13T11:38:53.074Z,4.05
2017-08-13T11:39:52.983Z,4.05
2017-08-13T11:40:53.063Z,4.06
2017-08-13T11:41:53.057Z,4.05
2017-08-13T11:42:54.801Z,4.05
2017-08-13T11:43:53.049Z,4.05
2017-08-13T11:44:53.032Z,4.05
2017-08-13T11:45:53.102Z,4.05
2017-08-13T11:46:53.047Z,4.05
2017-08-13T11:47:52.986Z,4.05
2017-08-13T11:48:53.102Z,4.04
2017-08-13T11:49:52.997Z,4.05
2017-08-13T11:50:53.806Z,4.05
2017-08-13T11:51:53.020Z,4.05
2017-08-13T11:52:53.016Z,4.05
2017-08-13T11:53:53.092Z,4.05
2017-08-13T11:54:53.053Z,4.05
2017-08-13T11:55:53.820Z,4.05
2017-08-13T11:56:53.045Z,4.06
2017-08-13T11:57:53.016Z,4.06
2017-08-13T11:58:53.820Z,4.05
2017-08-13T11:59:53.034Z,4.05
2017-08-13T12:00:53.135Z,4.05
2017-08-13T12:01:53.015Z,4.05
2017-08-13T12:02:54.339Z,4.05
2017-08-13T12:03:53.009Z,4.05
2017-08-13T12:04:53.082Z,4.07
2017-08-13T12:05:53.100Z,4.05
2017-08-13T12:06:53.110Z,4.05
2017-08-13T12:07:53.019Z,4.05
2017-08-13T12:08:53.057Z,4.05
2017-08-13T12:09:53.541Z,4.05
2017-08-13T12:10:53.126Z,4.05
2017-08-13T12:11:53.079Z,4.05
2017-08-13T12:12:53.860Z,4.05
2017-08-13T12:13:53.014Z,4.05
2017-08-13T12:14:53.570Z,4.05
2017-08-13T12:15:53.003Z,4.05
2017-08-13T12:16:53.071Z,4.05
2017-08-13T12:17:53.003Z,4.04
2017-08-13T12:18:53.020Z,4.04
2017-08-13T12:19:53.105Z,4.05
2017-08-13T12:20:53.974Z,4.05
2017-08-13T12:21:53.007Z,4.04
2017-08-13T12:22:53.019Z,4.05
2017-08-13T12:23:53.065Z,4.04
2017-08-13T12:24:53.050Z,4.05
2017-08-13T12:25:52.978Z,4.04
2017-08-13T12:26:53.014Z,4.05
2017-08-13T12:27:53.082Z,4.05
2017-08-13T12:28:53.045Z,4.05
2017-08-13T12:29:53.583Z,4.05
2017-08-13T12:30:53.880Z,4.05
2017-08-13T12:31:52.990Z,4.05
2017-08-13T12:32:53.086Z,4.05
2017-08-13T12:33:52.988Z,4.04
2017-08-13T12:34:53.073Z,4.04
2017-08-13T12:35:53.078Z,4.05
2017-08-13T12:36:53.046Z,4.05
2017-08-13T12:37:53.027Z,4.05
2017-08-13T12:38:53.004Z,4.04
2017-08-13T12:39:53.069Z,4.04
2017-08-13T12:40:53.894Z,4.04
2017-08-13T12:41:53.055Z,4.05
2017-08-13T12:42:53.002Z,4.04
2017-08-13T12:43:53.061Z,4.04
2017-08-13T12:44:53.056Z,4.05
2017-08-13T12:45:53.121Z,4.04
2017-08-13T12:46:53.013Z,4.04
2017-08-13T12:47:53.068Z,4.05
2017-08-13T12:48:52.964Z,4.04
2017-08-13T12:49:53.029Z,4.04
2017-08-13T12:50:53.117Z,4.04
2017-08-13T12:51:52.988Z,4.04
2017-08-13T12:52:53.922Z,4.04
2017-08-13T12:53:53.929Z,4.04
2017-08-13T12:54:53.422Z,4.04
2017-08-13T12:55:53.105Z,4.04
2017-08-13T12:56:52.994Z,4.05
2017-08-13T12:57:53.082Z,4.05
2017-08-13T12:58:53.101Z,4.05
2017-08-13T12:59:52.999Z,4.05
2017-08-13T13:00:53.149Z,4.05
2017-08-13T13:01:52.975Z,4.05
2017-08-13T13:02:53.198Z,4.05
2017-08-13T13:03:53.088Z,4.05
2017-08-13T13:04:53.038Z,4.05
2017-08-13T13:05:53.067Z,4.05
2017-08-13T13:06:53.092Z,4.05
2017-08-13T13:07:53.004Z,4.05
2017-08-13T13:08:53.015Z,4.05
2017-08-13T13:09:53.111Z,4.05
2017-08-13T13:10:53.018Z,4.05
2017-08-13T13:11:52.999Z,4.04
2017-08-13T13:12:53.012Z,4.04
2017-08-13T13:13:53.024Z,4.04
2017-08-13T13:14:53.452Z,4.05
2017-08-13T13:15:53.048Z,4.04
2017-08-13T13:16:52.981Z,4.04
2017-08-13T13:17:52.996Z,4.05
2017-08-13T13:18:53.000Z,4.05